Data for 03/30/2015

Time Sea-Level Adjusted Pressure Absolute Pressure Temperature Relative Humidity Dew Point   
(mb) (inHg) (mb) (inHg) (C) (F) (%) (C) (F)
00:05 1022 30.18 851 25.13 7.1 44.7 44 -4.4 24.1
00:10 1022 30.18 851 25.13 6.7 44.1 45 -4.3 24.2
00:15 1022 30.18 851 25.13 6.5 43.7 45 -4.5 24
00:20 1022 30.18 851 25.13 6.6 44 44 -4.6 23.6
00:25 1022 30.18 851 25.13 6.7 44.1 46 -4.2 24.5
00:30 1022 30.18 851 25.13 6.4 43.4 47 -4 24.7
00:35 1022 30.18 851 25.13 6.1 43 48 -4.1 24.6
00:40 1022 30.18 851 25.13 6.2 43.2 45 -4.9 23.1
00:45 1022 30.18 851 25.13 6.7 44 45 -4.4 24
00:50 1022 30.18 851 25.13 6.5 43.6 46 -4.2 24.4
00:55 1022 30.18 851 25.13 6 42.8 47 -4.5 23.8
01:00 1022 30.18 851 25.13 6.3 43.3 46 -4.5 23.9
01:05 1022 30.18 851 25.13 6.2 43.2 46 -4.5 23.9
01:10 1022 30.18 851 25.13 6.2 43.1 48 -4 24.8
01:15 1022 30.18 851 25.13 5.3 41.5 50 -4.2 24.5
01:20 1022 30.18 851 25.13 5.3 41.6 49 -4.6 23.8
01:25 1022 30.18 851 25.13 5.8 42.4 48 -4.5 23.9
01:30 1022 30.18 851 25.13 6 42.7 46 -4.7 23.5
01:35 1022 30.18 851 25.13 6.2 43.1 49 -3.8 25.1
01:40 1022 30.18 851 25.13 5.7 42.3 48 -4.4 24.1
01:45 1022 30.18 851 25.13 6 42.8 48 -4.2 24.4
01:50 1022 30.18 851 25.13 5.8 42.4 49 -4.1 24.5
01:55 1022 30.18 851 25.13 5.7 42.3 50 -3.9 25
02:00 1022 30.18 851 25.13 5.5 41.8 50 -4 24.8
02:05 1022 30.18 851 25.13 5.6 42.1 50 -3.9 25
02:10 1022 30.18 851 25.13 5.7 42.2 49 -4.1 24.7
02:15 1022 30.18 851 25.13 5.6 42 50 -4 24.9
02:20 1022 30.18 851 25.13 5.2 41.4 51 -4 24.9
02:25 1022 30.18 851 25.13 4.8 40.7 54 -3.7 25.3
02:30 1022 30.18 851 25.13 4.5 40 55 -3.8 25.2
02:35 1022 30.18 851 25.13 4.4 40 55 -3.9 25
02:40 1022 30.18 851 25.13 4.5 40.1 55 -3.9 25
02:45 1022 30.18 851 25.13 4.5 40.2 54 -4 24.9
02:50 1022 30.18 851 25.13 4.7 40.4 53 -4 24.8
02:55 1022 30.18 851 25.13 4.9 40.8 53 -4 24.9
03:00 1022 30.18 851 25.13 4.9 40.8 53 -3.8 25.1
03:05 1022 30.18 851 25.13 4.9 40.8 53 -3.8 25.1
03:10 1022 30.18 851 25.13 4.8 40.7 54 -3.7 25.3
03:15 1022 30.18 851 25.13 4.7 40.4 54 -4 24.9
03:20 1022 30.18 851 25.13 4.9 40.8 54 -3.6 25.5
03:25 1022 30.18 851 25.13 4.9 40.8 54 -3.7 25.4
03:30 1022 30.18 851 25.13 4.9 40.9 53 -3.7 25.3
03:35 1022 30.18 851 25.13 4.8 40.7 54 -3.7 25.3
03:40 1022 30.18 851 25.13 4.8 40.7 54 -3.8 25.1
03:45 1022 30.18 851 25.13 4.8 40.7 54 -3.7 25.3
03:50 1022 30.18 851 25.13 4.8 40.6 54 -3.8 25.2
03:55 1022 30.18 851 25.13 4.8 40.6 55 -3.6 25.6
04:00 1022 30.18 851 25.13 4.8 40.6 55 -3.6 25.6
04:05 1022 30.18 851 25.13 4.8 40.6 54 -3.6 25.4
04:10 1022 30.18 851 25.13 4.8 40.7 54 -3.6 25.4
04:15 1022 30.18 851 25.13 4.8 40.7 53 -3.8 25.1
04:20 1022 30.18 851 25.13 4.8 40.6 52 -4.1 24.6
04:25 1022 30.18 851 25.13 4.7 40.5 54 -3.9 24.9
04:30 1022 30.18 851 25.13 4.6 40.3 54 -4 24.7
04:35 1022 30.18 851 25.13 4.6 40.3 53 -4 24.8
04:40 1022 30.18 851 25.13 4.6 40.3 54 -4 24.8
04:45 1022 30.18 851 25.13 4.4 39.9 55 -3.8 25.1
04:50 1022 30.18 851 25.13 4.1 39.4 56 -3.9 24.9
04:55 1022 30.18 851 25.13 4.2 39.5 55 -4 24.8
05:00 1022 30.18 851 25.13 4 39.2 57 -3.8 25.2
05:05 1022 30.18 851 25.13 3.7 38.6 58 -3.9 25.1
05:10 1022 30.18 851 25.13 3.6 38.4 58 -3.9 24.9
05:15 1022 30.18 851 25.13 3.7 38.7 56 -4.3 24.3
05:20 1022 30.18 851 25.13 4.1 39.3 55 -4.2 24.5
05:25 1022 30.18 851 25.13 4.1 39.4 55 -4 24.7
05:30 1022 30.18 851 25.13 3.9 39.1 56 -4 24.8
05:35 1022 30.18 851 25.13 3.8 38.8 57 -4 24.7
05:40 1022 30.18 851 25.13 3.8 38.8 57 -4.1 24.7
05:45 1022 30.18 851 25.13 3.7 38.6 57 -4 24.9
05:50 1022 30.18 851 25.13 3.6 38.4 58 -4 24.8
05:55 1022 30.18 851 25.13 3.3 37.9 59 -4 24.8
06:00 1022 30.18 851 25.13 3.1 37.6 59 -4.1 24.6
06:05 1022 30.18 851 25.13 3.4 38.1 58 -4.2 24.4
06:10 1022 30.18 851 25.13 3.3 37.9 58 -4.2 24.4
06:15 1022 30.18 851 25.13 3.7 38.7 54 -4.7 23.5
06:20 1022 30.18 851 25.13 4.5 40.1 51 -4.7 23.6
06:25 1022 30.18 851 25.13 4.8 40.7 51 -4.4 24
06:30 1022 30.18 851 25.13 4.6 40.2 53 -4.2 24.4
06:35 1022 30.18 851 25.13 4.2 39.6 54 -4.2 24.4
06:40 1022 30.18 851 25.13 4 39.2 55 -4.2 24.5
06:45 1022 30.18 851 25.13 3.8 38.9 56 -4.2 24.5
06:50 1022 30.18 851 25.13 3.7 38.6 57 -4.1 24.6
06:55 1022 30.18 851 25.13 3.5 38.4 57 -4.1 24.6
07:00 1022 30.18 852 25.16 3.6 38.5 55 -4.5 23.9
07:05 1022 30.18 852 25.16 4.5 40.1 50 -5 23
07:10 1022 30.18 852 25.16 5.5 41.9 48 -4.7 23.5
07:15 1022 30.18 852 25.16 5.7 42.2 48 -4.4 24
07:20 1022 30.18 852 25.16 5.6 42 49 -4.2 24.5
07:25 1022 30.18 852 25.16 5.4 41.8 50 -4.2 24.4
07:30 1023 30.21 852 25.16 5.7 42.3 48 -4.4 24
07:35 1023 30.21 852 25.16 5.5 41.9 51 -3.9 24.9
07:40 1023 30.21 852 25.16 5.3 41.5 50 -4.2 24.4
07:45 1023 30.21 852 25.16 5.3 41.6 51 -3.9 25
07:50 1023 30.21 852 25.16 5.5 41.8 51 -3.9 25
07:55 1022 30.18 852 25.16 6.1 43 50 -3.5 25.6
08:00 1022 30.18 852 25.16 6.3 43.3 49 -3.5 25.6
08:05 1022 30.18 852 25.16 6.6 43.9 49 -3.4 26
08:10 1023 30.21 852 25.16 6.7 44 50 -3.1 26.4
08:15 1023 30.21 852 25.16 6.6 43.9 49 -3.3 26
08:20 1023 30.21 852 25.16 6.8 44.3 48 -3.3 26
08:25 1023 30.21 852 25.16 7.6 45.8 45 -3.4 25.8
08:30 1023 30.21 852 25.16 8.3 46.9 43 -3.4 25.9
08:35 1023 30.21 852 25.16 8.2 46.8 43 -3.4 25.8
08:40 1023 30.21 852 25.16 8.2 46.7 44 -3.4 25.9
08:45 1023 30.21 852 25.16 8.4 47.2 44 -3.2 26.3
08:50 1023 30.21 852 25.16 8.6 47.4 43 -3.2 26.3
08:55 1023 30.21 852 25.16 9.2 48.5 39 -4 24.8
09:00 1023 30.21 852 25.16 9.9 49.9 38 -3.8 25.1
09:05 1023 30.21 852 25.16 11.1 51.9 34 -4.1 24.6
09:10 1023 30.21 852 25.16 12.1 53.7 32 -3.9 25
09:15 1023 30.21 852 25.16 12.3 54.1 32 -4 24.7
09:20 1023 30.21 852 25.16 12.7 54.9 30 -4.3 24.3
09:25 1023 30.21 852 25.16 13 55.4 29 -4.6 23.8
09:30 1023 30.21 852 25.16 13.5 56.3 28 -4.7 23.6
09:35 1023 30.21 852 25.16 13.6 56.5 28 -4.4 24
09:40 1023 30.21 852 25.16 13.8 56.8 27 -5.1 22.9
09:45 1023 30.21 852 25.16 14.2 57.6 26 -5 22.9
09:50 1023 30.21 852 25.16 14.4 57.9 26 -4.9 23.1
09:55 1023 30.21 852 25.16 14.1 57.3 26 -5.1 22.8
10:00 1023 30.21 852 25.16 14.4 57.8 26 -5 23
10:05 1023 30.21 852 25.16 14.4 57.8 25 -5.2 22.6
10:10 1023 30.21 852 25.16 14.6 58.2 25 -5 23
10:15 1023 30.21 852 25.16 14.7 58.5 24 -5.5 22.1
10:20 1023 30.21 852 25.16 15.5 59.9 23 -5.6 22
10:25 1023 30.21 852 25.16 14.7 58.5 24 -5.4 22.3
10:30 1023 30.21 852 25.16 15.2 59.3 24 -5.4 22.3
10:35 1023 30.21 852 25.16 15.8 60.5 23 -5.5 22.2
10:40 1023 30.21 852 25.16 15.5 59.9 25 -4.6 23.7
10:45 1022 30.18 852 25.16 15.4 59.7 23 -5.4 22.3
10:50 1022 30.18 852 25.16 15.7 60.3 23 -5.2 22.6
10:55 1022 30.18 852 25.16 15.5 59.8 26 -4.1 24.6
11:00 1022 30.18 852 25.16 15.3 59.6 25 -4.7 23.5
11:05 1022 30.18 852 25.16 15.4 59.7 24 -5.1 22.8
11:10 1022 30.18 851 25.13 15.5 60 24 -5 22.9
11:15 1022 30.18 851 25.13 16 60.7 23 -5.1 22.8
11:20 1022 30.18 851 25.13 16.4 61.6 23 -4.6 23.7
11:25 1022 30.18 851 25.13 16.3 61.3 23 -4.9 23.1
11:30 1022 30.18 851 25.13 15.3 59.5 26 -3.9 24.9
11:35 1022 30.18 851 25.13 14.9 58.7 24 -5.6 21.9
11:40 1022 30.18 851 25.13 15.4 59.8 23 -5.5 22
11:45 1022 30.18 851 25.13 15.5 59.9 24 -4.9 23.1
11:50 1022 30.18 851 25.13 14.9 58.8 25 -5.1 22.8
11:55 1022 30.18 851 25.13 15.1 59.2 24 -5.5 22.1
12:00 1022 30.18 851 25.13 15.2 59.3 23 -5.8 21.6
12:05 1022 30.18 851 25.13 15.5 60 23 -5.6 22
12:10 1022 30.18 851 25.13 16 60.8 23 -5.1 22.9
12:15 1022 30.18 851 25.13 16.1 61 23 -4.7 23.5
12:20 1022 30.18 851 25.13 15.1 59.2 24 -5.3 22.4
12:25 1022 30.18 851 25.13 16.3 61.3 22 -5.1 22.7
12:30 1021 30.15 851 25.13 16.9 62.5 22 -4.9 23.2
12:35 1021 30.15 851 25.13 16.7 62.1 21 -5.6 22
12:40 1021 30.15 851 25.13 16.3 61.4 23 -5 23.1
12:45 1021 30.15 850 25.1 16.9 62.5 21 -5.5 22.1
12:50 1021 30.15 850 25.1 17.9 64.2 20 -5.5 22.1
12:55 1021 30.15 850 25.1 18.4 65.1 19 -5.5 22.1
13:00 1021 30.15 850 25.1 17.7 63.9 20 -5.1 22.8
13:05 1021 30.15 850 25.1 18.2 64.7 19 -5.6 22
13:10 1021 30.15 850 25.1 18.1 64.7 21 -4.3 24.3
13:15 1021 30.15 850 25.1 16.7 62.1 21 -5.5 22.2
13:20 1020 30.12 850 25.1 18.1 64.6 20 -5.3 22.4
13:25 1020 30.12 850 25.1 18.4 65.2 19 -5.3 22.5
13:30 1020 30.12 850 25.1 18.1 64.7 20 -5.4 22.3
13:35 1020 30.12 849 25.07 17.9 64.2 21 -4.9 23.2
13:40 1020 30.12 849 25.07 17.7 63.8 20 -5.2 22.7
13:45 1020 30.12 849 25.07 18.4 65.1 20 -5.1 22.9
13:50 1020 30.12 849 25.07 18.2 64.7 20 -5.3 22.5
13:55 1020 30.12 849 25.07 17.6 63.7 20 -5.2 22.6
14:00 1020 30.12 849 25.07 17.2 63 21 -5.5 22.2
14:05 1020 30.12 849 25.07 17.5 63.5 20 -5.8 21.6
14:10 1020 30.12 849 25.07 18.3 64.9 20 -5 23
14:15 1020 30.12 849 25.07 18.9 66 18 -5.7 21.7
14:20 1020 30.12 849 25.07 19.2 66.6 18 -5.6 22
14:25 1020 30.12 849 25.07 19.3 66.8 18 -5.5 22
14:30 1020 30.12 849 25.07 19.2 66.5 19 -5.1 22.8
14:35 1020 30.12 849 25.07 17.8 64.1 19 -5.7 21.8
14:40 1020 30.12 849 25.07 18.8 65.9 18 -5.9 21.4
14:45 1020 30.12 849 25.07 18.7 65.7 19 -5.6 22
14:50 1019 30.09 849 25.07 18.9 66.1 18 -6.1 21
14:55 1019 30.09 849 25.07 19.9 67.8 16 -6.6 20.1
15:00 1019 30.09 848 25.04 19.2 66.5 19 -5.1 22.8
15:05 1019 30.09 848 25.04 17.9 64.3 20 -5.3 22.4
15:10 1019 30.09 848 25.04 17.8 64 20 -5.6 22
15:15 1019 30.09 848 25.04 18.5 65.3 19 -5.3 22.5
15:20 1019 30.09 848 25.04 18.6 65.5 19 -5.7 21.8
15:25 1019 30.09 848 25.04 18.1 64.7 19 -5.6 21.9
15:30 1019 30.09 848 25.04 18.2 64.8 19 -5.5 22.1
15:35 1019 30.09 848 25.04 17.5 63.5 20 -5.6 22
15:40 1019 30.09 848 25.04 17.6 63.7 20 -5.5 22
15:45 1019 30.09 848 25.04 18 64.4 19 -5.7 21.7
15:50 1019 30.09 848 25.04 18.4 65 19 -5.5 22.1
15:55 1019 30.09 848 25.04 17.9 64.3 20 -5.6 22
16:00 1018 30.06 848 25.04 19 66.2 19 -5.3 22.4
16:05 1018 30.06 848 25.04 19.1 66.4 18 -5.7 21.8
16:10 1018 30.06 848 25.04 19.1 66.3 19 -4.8 23.3
16:15 1018 30.06 847 25.01 18.4 65.1 19 -5.5 22.2
16:20 1018 30.06 847 25.01 18 64.3 19 -5.8 21.6
16:25 1018 30.06 847 25.01 18.2 64.7 19 -5.4 22.3
16:30 1018 30.06 847 25.01 19 66.2 19 -5.3 22.4
16:35 1018 30.06 847 25.01 19.1 66.3 18 -5.4 22.3
16:40 1018 30.06 847 25.01 18.7 65.7 19 -5.2 22.6
16:45 1018 30.06 847 25.01 18.9 65.9 19 -5.3 22.4
16:50 1018 30.06 847 25.01 18.7 65.6 19 -5.4 22.3
16:55 1018 30.06 847 25.01 18.2 64.7 19 -6 21.1
17:00 1018 30.06 847 25.01 18.3 64.9 20 -5.2 22.6
17:05 1018 30.06 847 25.01 18.4 65.1 19 -5.7 21.7
17:10 1018 30.06 847 25.01 18.5 65.3 18 -5.8 21.5
17:15 1018 30.06 847 25.01 18.4 65.2 18 -6.2 20.8
17:20 1018 30.06 847 25.01 18.7 65.7 18 -6.3 20.7
17:25 1018 30.06 847 25.01 18.2 64.8 18 -6.1 21.1
17:30 1018 30.06 847 25.01 18.1 64.6 19 -5.8 21.6
17:35 1018 30.06 847 25.01 18 64.3 19 -6 21.2
17:40 1018 30.06 847 25.01 17.7 63.9 19 -6.1 21
17:45 1018 30.06 847 25.01 17.8 64 18 -6.5 20.3
17:50 1018 30.06 847 25.01 17.7 63.9 19 -6.4 20.6
17:55 1018 30.06 847 25.01 17.5 63.6 19 -6.2 20.8
18:00 1018 30.06 847 25.01 17.5 63.5 19 -6.2 20.8
18:05 1018 30.06 847 25.01 17.5 63.4 20 -5.7 21.8
18:10 1018 30.06 847 25.01 17.4 63.3 20 -6 21.2
18:15 1017 30.03 847 25.01 17.2 63 20 -6.1 21
18:20 1017 30.03 847 25.01 16.9 62.5 20 -6.2 20.8
18:25 1017 30.03 847 25.01 16.8 62.2 20 -6.5 20.4
18:30 1017 30.03 847 25.01 16.7 62 20 -6.2 20.9
18:35 1017 30.03 847 25.01 16.6 61.8 21 -5.6 21.9
18:40 1017 30.03 847 25.01 16.4 61.6 21 -5.6 22
18:45 1017 30.03 846 24.98 16.4 61.6 21 -6.1 21
18:50 1017 30.03 847 25.01 16.4 61.4 23 -5 23
18:55 1017 30.03 847 25.01 16 60.8 23 -4.9 23.3
19:00 1017 30.03 846 24.98 15.4 59.7 27 -3.6 25.5
19:05 1017 30.03 846 24.98 14.3 57.7 29 -3.5 25.6
19:10 1017 30.03 847 25.01 13.5 56.4 30 -3.7 25.4
19:15 1017 30.03 847 25.01 13.3 55.9 30 -4.1 24.7
19:20 1017 30.03 847 25.01 13.2 55.7 30 -4.1 24.5
19:25 1017 30.03 847 25.01 13 55.4 30 -4.2 24.4
19:30 1017 30.03 847 25.01 12.7 54.9 30 -4.5 23.9
19:35 1018 30.06 847 25.01 12.5 54.5 30 -4.5 23.9
19:40 1018 30.06 847 25.01 12.3 54.1 30 -4.6 23.7
19:45 1018 30.06 847 25.01 12.2 53.9 31 -4.3 24.2
19:50 1018 30.06 847 25.01 11.7 53.1 32 -4.3 24.3
19:55 1018 30.06 847 25.01 11.4 52.4 32 -4.7 23.5
20:00 1018 30.06 847 25.01 11.2 52.1 33 -4.5 23.8
20:05 1018 30.06 847 25.01 11 51.8 32 -5 23
20:10 1018 30.06 847 25.01 11 51.8 32 -5.2 22.6
20:15 1018 30.06 847 25.01 11.1 51.9 31 -5.3 22.5
20:20 1018 30.06 847 25.01 11.1 52 30 -5.7 21.7
20:25 1018 30.06 847 25.01 11.2 52.2 29 -5.9 21.4
20:30 1018 30.06 847 25.01 11.3 52.4 29 -6 21.3
20:35 1018 30.06 847 25.01 11.5 52.6 29 -5.9 21.5
20:40 1018 30.06 847 25.01 11.2 52.2 29 -6 21.3
20:45 1018 30.06 847 25.01 11 51.7 30 -5.9 21.4
20:50 1018 30.06 847 25.01 10.5 50.9 34 -4.8 23.3
20:55 1018 30.06 847 25.01 10.1 50.2 31 -6.3 20.6
21:00 1018 30.06 847 25.01 10.7 51.2 31 -5.8 21.5
21:05 1018 30.06 847 25.01 10.4 50.7 31 -6 21.3
21:10 1018 30.06 847 25.01 10.6 51.1 31 -5.8 21.5
21:15 1018 30.06 847 25.01 11.1 52 28 -6.8 19.7
21:20 1018 30.06 847 25.01 11.9 53.4 26 -6.9 19.6
21:25 1018 30.06 847 25.01 12.2 53.9 26 -6.8 19.8
21:30 1018 30.06 847 25.01 12.2 54 27 -6.2 20.8
21:35 1018 30.06 847 25.01 12 53.6 28 -6 21.1
21:40 1017 30.03 847 25.01 11.4 52.5 28 -6.2 20.8
21:45 1018 30.06 847 25.01 11 51.7 30 -5.8 21.6
21:50 1018 30.06 847 25.01 10.7 51.3 31 -5.7 21.8
21:55 1018 30.06 847 25.01 10.7 51.2 30 -6.1 21.1
22:00 1017 30.03 847 25.01 10.8 51.5 29 -6.3 20.6
22:05 1017 30.03 847 25.01 11 51.7 29 -6.3 20.6
22:10 1017 30.03 847 25.01 11.3 52.4 26 -7.2 19
22:15 1017 30.03 847 25.01 11.4 52.4 29 -5.9 21.5
22:20 1017 30.03 847 25.01 11.3 52.4 26 -7.6 18.3
22:25 1017 30.03 846 24.98 11.9 53.5 27 -6.4 20.4
22:30 1017 30.03 846 24.98 11.4 52.5 28 -6.5 20.4
22:35 1017 30.03 846 24.98 11.1 51.9 30 -6 21.2
22:40 1017 30.03 846 24.98 10.5 51 31 -6 21.1
22:45 1017 30.03 846 24.98 10.4 50.6 30 -6.4 20.4
22:50 1017 30.03 846 24.98 10.3 50.5 31 -6.1 21
22:55 1017 30.03 846 24.98 10.1 50.3 31 -6.4 20.6
23:00 1017 30.03 846 24.98 10.1 50.2 31 -6.1 21
23:05 1017 30.03 846 24.98 10 49.9 32 -6 21.1
23:10 1017 30.03 846 24.98 10 50 31 -6.1 20.9
23:15 1017 30.03 846 24.98 9.8 49.7 32 -6.2 20.9
23:20 1017 30.03 846 24.98 9.8 49.7 31 -6.4 20.5
23:25 1017 30.03 846 24.98 9.9 49.8 30 -6.9 19.6
23:30 1017 30.03 846 24.98 10.4 50.7 30 -6.4 20.4
23:35 1017 30.03 846 24.98 10.3 50.5 29 -7.2 19.1
23:40 1017 30.03 846 24.98 10.9 51.6 28 -6.8 19.7
23:45 1017 30.03 846 24.98 10.5 50.9 30 -6.2 20.9
23:50 1017 30.03 846 24.98 10 50.1 29 -7 19.4
23:55 1017 30.03 846 24.98 10.1 50.2 30 -6.8 19.7
24:00 1017 30.03 846 24.98 10.1 50.3 29 -7 19.4